Latest Observation

114 Stations

10 Minute Data
as of 9/6/26 5:07 AM PDT
Station Date Time Temp (°F) RH (%) Dew Pt (°F) Wind Spd (mph) Wind Dir (°) Wind Gust (mph) Wind Gst Dir (°) Latest Rain (In) Soil Moist (%) Soil Temp (°F) Daily Rain (In) Daily Min Temp (°F) Daily Max Temp (°F) Daily Max Wind (mph)
Hobart Mills 9/6/26 0500 47.0   3.7 81   2 41.4   3.0 1.5   0.7 E | 85 6.0   1.7 SW | 229 0.00 7.4   0.0 60.9   0.8 0.00 44.3   3.2 47.8   3.3 6.0   1.7
Prosser Dam 9/6/26 0500 39.3   0.6 96   4 38.2   1.6 1.2   0.4 S | 191 2.6   0.2 SSE | 159 0.00 5.2   0.0 59.1   0.4 0.00 37.9   0.4 46.6   0.5 7.3   2.0
West Incline Village 9/6/26 0500 46.2   1.0 69   6 36.5   1.2 1.8   0.2 N | 10 5.2   1.7 ENE | 65 0.00 11.6   0.1 55.5   0.2 0.00 45.8   2.5 47.6   1.2 9.4   0.2
Incline Village (Fairview Blvd) 9/6/26 0500 48.9   0.2 62   5 36.3   1.6 2.0   0.5 N | 4 7.1   4.0 NNE | 13 0.00 7.6   0.0 67.6   0.1 0.00 48.3   2.0 49.9   0.9 8.7   2.4
Incline Village (Diamond Peak) 9/6/26 0500 45.6   0.2 68   3 35.9   1.2 1.8   1.1 NW | 322 3.8   5.5 NW | 313 0.00 2.5   0.1 57.5   1.2 0.00 45.2   0.9 46.2   0.2 7.0   2.4
Incline Village (Mill Creek) 9/6/26 0500 46.9   3.6 70   6 37.8   1.2 0.7   0.8 E | 90 2.7   5.2 E | 100 0.00 2.9   0.1 60.0   0.5 0.00 46.1   0.8 49.7   1.2 4.5   8.1
Incline Village (Lakeshore Blvd) 9/6/26 0500 42.1   10.3 83   14 37.4   5.1 1.2   1.8 NE | 49 4.0   2.9 ENE | 67 0.00 22.0   0.0 56.9   0.9 0.00 41.8   2.2 46.9   6.6 6.8   2.9
Glenbrook 9/6/26 0500 55.8   13.3 33   46 27.0   9.4 4.9   2.9 SE | 136 10.9   6.8 E | 96 0.00 43.6   0.1 58.1   0.2 0.00 51.0   10.9 56.2   11.9 16.2   9.9
Zephyr Cove 9/6/26 0500 50.3   3.6 41   29 27.6   10.1 0.1   0.6 ENE | 73 2.2   0.4 ENE | 69 0.00 2.9   0.1 60.5   2.0 0.00 49.0   3.8 52.2   4.8 7.7   4.8
Kingsbury Grade 9/6/26 0500 44.5   4.1 49   33 26.8   8.8 2.7   2.0 NE | 42 6.5   1.5 E | 93 0.00 2.5   0.3 63.5   0.9 0.00 42.3   3.0 46.4   4.0 6.6   1.4
South Daggett Pass (Ridge) 9/6/26 0500 47.9   4.9 47   28 28.8   7.0 0.0   0.2 N | 0 0.0   3.0 NE | 47 0.00 2.2   0.0 60.5   0.5 0.00 46.0   4.1 49.2   3.9 10.6   0.1
Palomino Valley 9/6/26 0500 47.0   4.9 70   7 37.8   2.4 1.6   0.3 E | 89 4.3   0.1 E | 91 0.00 6.6   0.0 73.6   0.2 0.00 45.7   4.6 56.0   5.8 6.6   0.0
East Cold Springs 9/6/26 0500 50.1   3.8 68   2 40.0   2.9 3.2   2.7 W | 271 7.5   5.2 W | 270 0.00 1.5   0.0 68.5   1.0 0.00 47.6   1.6 54.4   2.8 10.4   4.2
Peavine 9/6/26 0500 54.4   7.6 45   22 33.6   2.9 8.7   2.3 SW | 217 13.7   5.6 SSW | 209 0.00 4.2   0.0 65.4   1.4 0.00 53.7   7.4 55.8   2.3 25.6   3.4
West Verdi Peak 9/6/26 0600 49.0   1.8 73   4 40.8   3.1 5.0   1.8 S | 169 8.9   2.1 SSE | 148 0.00 6.4   0.1 64.2   0.7 0.00 48.1   1.8 49.2   0.5 13.0   5.0
West Verdi 9/6/26 0500 48.9   3.1 73   2 40.8   2.1 3.3   3.3 N | 349 7.1   7.1 NW | 314 0.00 6.0   0.1 73.9   0.9 0.00 47.2   1.6 52.8   1.4 7.1   0.9
South Verdi 9/6/26 0500 52.6   4.7 56   10 37.6   0.4 6.1   4.5 S | 175 7.8   3.7 S | 178 0.00 10.1   0.0 65.8   0.8 0.00 50.1   2.4 53.3   0.2 13.2   5.3
Northwest Reno 9/6/26 0500 52.2   2.0 63   1 40.1   1.4 3.5   1.8 N | 11 5.8   2.5 NE | 37 0.00 24.4   0.1 71.3   0.0 0.00 51.3   2.2 59.3   3.9 15.5   3.5
North Lawton 8/28/26 1620 63.8   17.1 74   52 55.4   16.5 1.5   11.6 ESE | 121 5.1   19.0 SE | 124 0.00 - 78.2   0.0 0.05 59.2   7.5 71.9   13.3 20.4   4.6
West Reno (Mogul) 9/6/26 0500 51.6   1.3 60   2 38.2   0.2 0.0   0.0 N | 0 0.0   0.0 SSW | 210 0.00 19.4   0.1 76.0   0.6 0.00 49.8   1.6 54.7   0.4 18.9   8.4
Caughlin (Hunter Lake Trail) 9/6/26 0500 51.4   4.1 60   8 38.2   0.6 1.7   3.5 S | 186 5.3   2.6 SSW | 212 0.00 16.1   0.0 70.0   0.5 0.00 51.2   4.5 55.7   3.1 12.8   3.8
ArrowCreek 9/6/26 0500 52.1   1.6 63   1 39.9   1.9 5.2   2.3 S | 172 9.4   0.9 SSW | 194 0.00 - 32.0   0.0 0.00 49.8   2.3 57.3   4.2 14.9   3.8
Tracy 9/6/26 0500 52.4   1.7 61   6 39.3   0.8 0.8   0.7 WSW | 248 2.0   0.6 WSW | 251 0.00 15.5   0.1 75.2   0.6 0.00 51.6   0.9 59.7   2.5 6.1   1.5
Virginia Highlands 9/6/26 0500 52.5   3.7 55   9 36.9   0.4 1.2   1.8 SW | 227 6.3   1.4 WSW | 242 0.00 7.8   0.0 71.6   0.4 0.00 49.5   0.9 55.0   3.5 10.9   1.5
Virginia City 9/6/26 0500 50.7   3.8 52   17 33.5   3.5 3.8   1.1 WNW | 293 6.2   1.1 WNW | 294 0.00 4.7   0.0 71.6   0.4 0.00 50.3   3.7 56.6   5.8 15.4   8.7
Six Mile Canyon 9/6/26 0500 53.8   0.8 44   12 32.6   6.6 3.4   0.0 NW | 326 5.3   0.5 NW | 310 0.00 12.1   0.1 74.5   0.8 0.00 53.3   0.5 61.4   3.8 11.0   0.5
Mt Rose Highway 9/6/26 0500 47.6   1.5 58   11 33.5   3.1 1.1   2.5 SSE | 149 4.8   8.9 SSW | 196 0.00 7.4   0.0 59.2   0.3 0.00 46.8   1.6 51.3   3.5 16.6   6.7
Pleasant Valley 9/6/26 0500 49.2   6.6 65   12 37.8   2.0 0.9   1.0 SE | 137 3.2   2.7 SW | 224 0.00 2.2   0.0 72.7   0.3 0.00 47.8   5.9 55.7   6.0 9.3   1.4
New Washoe City 9/6/26 0500 49.8   0.6 64   1 38.0   0.9 1.3   1.5 NNE | 32 4.5   1.7 NE | 46 0.00 3.4   0.0 70.1   0.6 0.00 48.7   0.8 56.5   3.2 13.7   3.4
Franktown Creek 9/6/26 0500 48.6   1.4 68   7 38.6   1.1 0.6   0.4 SW | 236 3.4   0.6 SSW | 212 0.00 7.0   0.0 68.7   0.8 0.00 48.4   1.2 59.0   1.1 10.1   5.1
Musgrove Creek 9/6/26 0500 55.8   4.1 50   10 37.6   0.9 0.1   1.7 WSW | 247 3.8   0.5 WSW | 258 0.00 10.3   0.0 59.5   0.3 0.00 54.7   4.0 58.5   4.1 13.4   3.1
East Carson 11/23/24 0110 28.6   28.4 - - 4.7   11.0 SW | 220 14.7   10.1 SW | 219 0.02 - 50.9   0.1 0.02 -25.9   79.1 42.9   14.6 16.0   10.7
Kings Canyon 9/6/26 0500 53.6   3.0 38   24 28.4   9.6 3.3   0.1 S | 190 5.1   0.2 SSW | 199 0.00 4.1   0.0 67.0   1.2 0.00 50.6   1.8 62.4   6.9 15.5   7.6
Carson City (Voltaire Canyon) 9/6/26 0500 60.3   5.5 36   20 33.1   6.2 6.5   6.5 S | 188 8.1   8.1 SSW | 202 0.00 2.8   0.0 75.7   0.5 0.00 59.2   5.3 62.9   5.2 15.5   3.5
Jacks Valley 9/6/26 0500 53.6   3.4 43   18 31.7   5.6 1.7   0.8 ENE | 61 4.3   0.6 NE | 36 0.00 4.6   0.1 72.9   2.3 0.00 51.5   3.2 60.0   4.5 6.8   1.0
Genoa 9/6/26 0500 57.9   5.9 33   26 29.2   9.3 0.2   0.2 W | 272 2.2   2.2 WNW | 292 0.00 2.2   0.0 62.4   2.0 0.00 56.4   5.6 63.2   5.4 10.6   0.6
South Genoa (Walleys Hot Springs) 9/6/26 0500 52.8   7.0 49   23 34.2   3.1 1.0   2.4 NE | 39 4.1   1.4 E | 81 0.00 5.6   1.2 72.6   0.3 0.00 52.2   8.2 66.6   10.2 16.9   7.3
SW Gardnerville (HWY 88) 9/6/26 0500 61.7   14.0 36   34 34.4   3.9 9.9   7.3 SE | 136 14.0   8.3 SE | 129 0.00 2.8   0.0 67.2   0.1 0.00 60.1   16.1 64.6   8.9 22.0   9.1
Sheridan 9/6/26 0500 58.2   7.4 38   19 32.9   3.2 3.9   2.0 WSW | 245 7.5   1.7 WSW | 241 0.00 1.1   0.1 70.4   1.0 0.00 54.0   5.6 62.0   4.0 14.4   4.6
Ruhenstroth 9/6/26 0500 53.7   0.6 43   10 32.0   4.8 3.3   4.9 ESE | 111 6.2   5.1 SE | 132 0.00 6.7   0.0 68.8   0.6 0.00 51.3   1.1 55.1   1.6 9.9   3.6
Double Spring 9/6/26 0500 48.3   8.0 48   30 29.6   4.5 2.2   2.2 WSW | 249 12.0   12.0 SSE | 148 0.00 24.8   0.1 68.4   0.5 0.00 44.8   7.1 58.6   9.9 13.4   8.9
North Topaz Lake 9/6/26 0500 60.0   7.6 35   23 31.9   6.1 3.3   0.9 WSW | 255 9.6   6.0 W | 263 0.00 7.4   0.0 65.4   0.5 0.00 55.5   3.2 61.9   5.5 17.5   9.8
Wild Oat Mountain 9/6/26 0500 55.1   3.6 47   11 35.0   2.2 2.6   1.0 SSE | 165 5.6   2.1 S | 175 0.00 5.6   0.0 67.6   0.5 0.00 53.7   2.5 58.6   4.6 8.3   1.7
Smith Valley 9/6/26 0500 52.7   3.1 53   9 35.9   1.0 1.3   0.8 WSW | 257 4.7   1.1 SE | 128 0.00 2.8   0.1 75.5   0.4 0.00 50.7   1.3 59.7   2.2 10.8   2.0
Pine Grove Mountain 9/6/26 0500 49.8   8.8 32   47 21.4   13.6 0.9   5.1 E | 85 3.5   5.5 E | 84 0.00 6.5   0.0 62.7   0.3 0.00 48.3   7.5 50.6   6.9 4.8   6.0
Paradise Hill 9/6/26 0500 56.0   7.4 47   6 36.0   3.6 2.2   0.0 NNE | 12 5.5   0.9 N | 8 0.00 9.7   0.0 71.6   1.9 0.00 54.5   6.5 62.0   3.1 16.8   8.0
Winnemucca 9/6/26 0500 55.0   3.3 51   7 37.3   6.4 5.9   0.2 SSE | 166 7.3   0.1 S | 170 0.00 5.7   0.1 73.5   1.0 0.00 54.4   4.1 60.4   3.6 13.0   3.8
NE Elko 9/6/26 0500 42.8   0.1 55   16 27.9   6.3 0.1   0.7 NE | 54 1.4   0.2 S | 175 0.00 5.6   0.1 70.6   0.2 0.00 42.0   0.6 51.7   2.0 7.0   0.0
North Elko 9/6/26 0500 56.1   6.1 43   21 34.1   4.5 2.9   1.9 N | 351 4.3   2.1 NNW | 345 0.00 24.6   0.1 71.6   0.3 0.00 54.7   5.7 63.3   8.0 9.4   0.2
South Elko 9/6/26 0500 58.6   7.8 34   31 30.6   8.9 4.5   4.5 S | 190 7.3   7.3 S | 174 0.00 13.5   0.0 66.8   0.1 0.00 57.3   7.1 64.5   10.8 7.3   3.1
Lamoille 9/6/26 0500 52.4   5.5 43   25 30.4   6.5 2.2   3.2 E | 80 4.3   2.0 ESE | 103 0.00 6.0   0.1 67.7   0.2 0.00 51.1   7.0 59.8   8.6 9.4   0.0
Reid Gardner Sub 9/6/26 0500 76.7   11.0 36   8 48.1   16.2 1.6   0.0 SE | 128 4.5   0.6 ENE | 68 0.00 25.5   1.8 87.6   0.3 0.00 75.0   10.6 82.7   3.4 7.9   0.7
Corn Creek 9/6/26 0500 76.8   4.2 32   1 45.1   4.5 3.1   3.6 SE | 131 7.7   5.3 E | 82 0.00 3.0   0.0 87.0   1.3 0.00 73.9   1.5 80.7   2.2 10.9   16.3
Lucky Strike 9/6/26 0450 69.2   3.7 35   10 40.1   11.4 5.6   2.0 WSW | 241 8.7   3.3 WSW | 238 0.00 3.1   0.1 79.7   0.5 0.00 67.0   3.3 71.1   2.1 10.9   0.4
Lower Angel Peak 9/6/26 0500 60.8   4.6 49   22 41.6   19.1 5.3   0.8 S | 187 8.1   0.2 SSW | 200 0.00 3.1   0.0 72.8   0.2 0.00 58.6   3.1 69.3   2.8 14.4   4.6
Angel Peak 9/6/26 0500 56.0   0.9 60   41 42.3   29.0 13.0   3.6 SSW | 199 21.7   0.2 S | 174 0.00 2.4   0.1 64.5   1.3 0.00 54.9   0.7 59.0   3.1 32.9   4.2
Upper Kyle Canyon 9/6/26 0500 60.4   2.1 56   33 44.5   23.9 4.7   1.4 NW | 316 17.1   0.2 WNW | 303 0.00 7.7   0.0 75.1   0.0 0.00 59.8   2.2 61.6   1.9 22.4   11.8
Mt Charleston 9/6/26 0500 61.5   2.6 54   30 44.9   22.0 3.5   4.8 WNW | 301 10.6   11.5 NNW | 337 0.00 13.1   0.0 67.4   0.7 0.00 59.0   1.4 62.2   2.2 19.0   9.6
Mid Kyle Canyon 9/6/26 0500 67.9   4.1 46   25 46.6   22.6 3.1   2.8 W | 267 11.4   0.4 SSE | 164 0.00 5.8   0.0 74.2   0.3 0.00 66.1   6.9 69.0   1.1 22.6   6.0
Blue Diamond 9/6/26 0500 79.7   9.1 36   6 50.0   12.6 8.6   6.0 W | 271 16.4   11.0 WNW | 291 0.00 1.2   0.1 85.5   0.3 0.00 76.8   6.8 80.0   2.6 21.6   4.0
Artesian Sub 9/6/26 0500 85.0   5.3 29   2 49.0   6.9 4.7   1.5 SE | 131 7.7   0.7 ESE | 122 0.00 11.6   0.1 92.0   0.3 0.00 84.9   5.4 88.2   3.1 10.7   0.7
North Henderson 9/6/26 0500 87.2   4.9 28   4 50.6   8.3 2.8   1.7 SSE | 149 3.8   3.2 SSE | 148 0.00 10.7   0.3 95.6   0.0 0.00 85.7   3.7 89.6   2.5 9.9   6.6
Sandy Valley 9/6/26 0500 79.3   8.1 39   0 52.1   7.5 4.1   1.7 NW | 326 6.5   1.4 NW | 325 0.00 7.3   0.2 87.5   1.0 0.00 77.5   7.6 80.2   3.9 10.3   1.0
Searchlight 9/6/26 0510 76.4   8.9 42   5 51.5   11.2 0.2   4.1 SE | 129 2.1   5.3 ESE | 114 0.00 5.6   0.1 84.3   1.3 0.00 73.5   7.9 76.7   3.8 4.8   8.4
Laughlin 9/6/26 0500 89.1   6.5 39   21 60.8   26.4 2.5   1.0 W | 261 5.3   2.9 W | 265 0.00 4.4   0.0 98.5   0.6 0.00 89.1   6.6 92.9   3.5 7.9   1.0
31Mission Hills 9/6/26 0500 83.0   4.6 29   5 47.2   9.1 3.8   5.0 SSE | 160 5.6   7.2 S | 191 0.00 6.2   0.0 86.9   2.9 0.00 80.9   4.7 83.6   1.7 9.1   3.7
32 Enterprise Sierra Cliffs 9/6/26 0500 80.4   4.9 33   9 48.8   12.4 7.1   0.9 SW | 217 13.4   2.2 SW | 218 0.00 1.3   0.1 83.3   1.5 0.00 78.9   7.2 81.3   3.2 19.4   0.8
29 Calico Basin 9/6/26 0500 78.2   7.1 34   9 47.4   13.6 12.8   9.8 SW | 216 17.9   12.9 SSW | 211 0.00 2.4   0.0 84.3   0.1 0.00 77.2   6.9 79.1   2.9 21.0   12.8
28 Indian Springs 9/6/26 0500 75.4   6.5 26   1 38.4   4.5 3.2   0.4 E | 92 6.0   0.5 SSE | 164 0.00 4.3   0.0 84.9   0.6 0.00 74.0   7.6 80.6   6.5 14.5   5.8
30 Jean 9/6/26 0500 76.1   6.9 35   3 46.3   8.4 3.6   5.1 SSW | 204 5.2   7.8 SSW | 204 0.00 4.8   0.0 83.8   1.8 0.00 75.1   7.4 80.8   7.0 14.5   0.9
VC Highlands NW 9/6/26 0500 51.2   3.4 56   7 36.1   0.2 3.1   1.6 S | 189 7.2   3.0 S | 176 0.00 1.5   0.1 60.8   1.2 0.00 50.6   4.2 52.1   2.7 8.7   0.7
Glenbrook-Spooner Summit 9/6/26 0500 45.3   7.9 44   44 24.6   9.4 0.9   0.3 NE | 53 4.5   1.9 SSW | 203 0.00 7.7   0.0 62.9   0.3 0.00 40.0   2.7 47.5   6.4 6.8   4.1
Hobo Hot Springs 9/6/26 0500 48.5   5.9 52   22 31.9   3.1 0.6   1.6 WSW | 257 2.7   5.3 NNW | 336 0.00 1.0   0.0 68.0   1.0 0.00 48.2   6.6 58.9   6.1 4.3   3.7
Jack Valley Ranch 2 9/6/26 0500 54.5   2.3 36   20 27.8   9.0 7.2   3.0 N | 3 9.3   2.4 N | 2 0.00 2.1   0.0 72.9   0.7 0.00 52.8   4.5 61.0   5.8 12.8   0.2
Genoa North 2 9/6/26 0500 57.2   5.2 30   26 26.1   10.8 6.1   4.7 WSW | 257 9.9   5.7 WSW | 256 0.00 0.8   0.0 72.1   1.8 0.00 55.9   5.4 60.1   6.3 11.8   5.1
Mottsville 2 9/6/26 0500 60.3   12.1 33   30 31.2   4.9 6.7   5.0 WNW | 286 9.1   5.3 WNW | 283 0.00 1.4   0.1 70.9   1.0 0.00 59.0   14.4 63.7   6.5 14.9   2.7
Kingsbury Village 3 9/6/26 0500 45.6   5.0 39   34 22.3   10.6 2.1   0.4 NNE | 23 4.2   1.0 NE | 34 0.00 3.1   0.1 57.8   1.5 0.00 42.6   4.1 47.8   5.2 7.0   0.6
Kingsbury-Benjamin Dr 2 9/6/26 0500 46.5   3.9 39   34 23.2   11.6 0.0   0.5 SSE | 147 0.2   2.4 SSE | 147 0.00 2.8   0.1 63.4   1.5 0.00 45.6   4.6 49.2   4.6 7.9   2.1
Smith Valley-Wellington 9/6/26 0500 44.9   0.4 70   5 35.6   1.3 0.1   0.4 WNW | 292 1.1   1.0 WNW | 293 0.00 3.5   0.0 79.0   0.3 0.00 44.7   0.5 56.2   1.6 4.0   1.7
Sheridan South 2 9/6/26 0500 55.8   6.5 39   19 31.4   4.0 5.6   4.4 WNW | 287 8.6   5.6 WNW | 302 0.00 0.4   0.0 70.7   2.4 0.00 52.8   4.3 64.6   3.6 22.0   3.1
Silver Springs 9/6/26 0500 56.3   8.0 51   15 38.4   1.0 2.4   0.4 WSW | 252 3.6   0.2 W | 267 0.00 5.0   0.1 77.0   1.6 0.00 55.2   7.0 61.9   3.1 16.5   0.4
Fernley 9/6/26 0500 53.7   4.2 55   7 38.1   0.8 4.2   1.2 SSW | 205 5.8   2.0 SSW | 210 0.00 3.0   0.0 70.7   1.0 0.00 52.7   3.3 58.0   2.8 8.2   0.1
Spanish Springs 9/6/26 0500 47.9   1.4 69   3 38.4   0.4 0.4   0.4 WNW | 299 1.5   1.0 W | 279 0.00 10.0   0.0 73.8   1.1 0.00 47.5   1.5 57.4   7.1 7.8   4.1
Suttcliffe South 2 9/6/26 0500 45.5   0.4 68   3 35.7   1.4 0.9   3.0 SSW | 206 3.5   2.7 WSW | 244 0.00 4.0   0.1 66.8   1.6 0.00 45.0   1.5 54.8   1.7 5.8   1.4
Lemmon Valley North 9/6/26 0500 46.4   8.2 74   7 38.4   5.8 2.6   1.8 SSE | 158 4.5   1.0 ESE | 110 0.00 2.0   0.0 69.2   0.1 0.00 43.4   6.1 57.0   4.6 15.4   3.6
Lemmon Valley NW 3 9/6/26 0500 45.7   3.4 71   5 37.0   1.8 3.5   2.7 NNW | 337 5.6   3.0 NNW | 348 0.00 1.2   0.1 69.8   1.6 0.00 43.7   2.0 56.7   3.2 15.9   9.4
VC Highlands North 9/6/26 0500 40.8   2.6 77   5 34.0   1.0 0.8   0.7 ENE | 62 2.6   1.1 ENE | 58 0.00 4.3   0.1 60.1   1.5 0.00 39.6   1.6 53.4   7.5 7.6   5.0
Upper Voltaire Cyn 9/6/26 0500 56.2   4.6 36   22 29.4   7.8 1.3   3.7 SW | 224 5.6   2.0 SW | 214 0.00 1.1   0.1 67.4   2.7 0.00 55.7   5.4 58.8   4.9 12.2   0.6
Yerington NW 9/6/26 0500 50.7   0.2 61   0 37.7   0.4 0.3   0.9 NE | 36 1.4   0.5 NNE | 28 0.00 7.2   0.0 72.5   0.9 0.00 48.5   0.2 58.3   0.8 8.1   0.6
Spanish Springs SW 9/6/26 0500 51.8   1.4 60   4 38.2   0.3 2.1   1.2 WNW | 287 3.7   1.7 WNW | 300 0.00 1.4   0.1 71.3   1.2 0.00 47.4   1.1 57.3   4.8 12.8   7.3
Cosgrave 2 8/27/26 0750 62.9   4.1 34   3 33.8   1.4 2.6   0.5 WSW | 246 4.1   1.0 W | 267 0.00 3.8   0.1 77.4   2.9 0.00 62.7   3.3 77.4   3.5 11.2   3.9
Winnemucca-Grass Valley 2 9/6/26 0500 50.7   3.9 54   2 34.7   2.7 2.4   0.6 WSW | 258 3.2   0.5 W | 260 0.00 7.6   0.0 64.2   1.9 0.00 50.2   5.2 59.5   3.1 9.8   3.8
Winnemucca-Dutch Flat Rd 9/6/26 0500 54.8   2.8 46   3 34.3   4.2 4.7   0.1 W | 276 6.7   0.6 W | 281 0.00 6.1   0.1 71.8   0.1 0.00 53.4   3.3 61.6   4.8 9.2   4.4
Paradise Valley 2 9/6/26 0500 46.1   0.5 56   14 31.4   5.2 4.9   1.0 NNW | 328 6.8   1.0 NNW | 347 0.00 12.5   0.1 71.4   0.2 0.00 45.1   2.2 55.1   2.0 7.8   0.0
Golconda 2 9/6/26 0500 53.7   0.6 47   8 33.9   5.3 2.8   2.1 SW | 220 6.6   2.7 WSW | 248 0.00 1.8   0.1 71.1   2.8 0.00 51.6   0.1 63.9   4.0 17.9   0.2
Battle Mountain - South 9/6/26 0500 50.3   3.2 48   19 31.4   5.5 1.3   0.8 N | 11 3.6   1.9 NNE | 24 0.00 9.2   0.1 73.4   0.4 0.00 49.6   4.2 58.3   3.1 8.1   3.4
Geiger Summit 9/6/26 0500 48.3   3.8 100   0 48.4   3.8 5.2   1.1 SSW | 201 7.6   0.5 SSW | 194 0.00 6.2   0.1 59.5   0.8 0.00 47.7   3.4 52.6   4.7 15.0   2.4
Combs Canyon 3 9/6/26 0500 54.7   4.4 52   8 37.3   0.4 7.0   2.7 W | 275 11.4   4.5 W | 281 0.00 1.0   0.0 71.3   0.2 0.00 54.0   5.2 62.1   7.3 12.4   3.8
Clear Creek 9/6/26 0500 52.1   2.3 38   23 27.0   9.9 2.5   0.7 NW | 324 5.0   0.7 N | 0 0.00 3.4   0.1 67.8   2.2 0.00 49.8   1.1 57.8   3.4 11.2   1.6
Eastlake 2 9/6/26 0500 49.6   0.9 63   4 37.6   0.6 1.6   0.1 SSE | 168 5.3   1.7 SW | 221 0.00 3.4   0.0 71.4   0.0 0.00 48.6   1.3 57.7   0.0 9.1   3.2
Lovelock-Colado 2 9/6/26 0500 52.0   3.5 53   2 35.6   2.2 2.9   1.3 NNE | 28 3.8   1.7 NE | 35 0.00 - 74.3   1.2 0.00 51.8   3.4 60.4   2.2 13.8   2.5
Spanish Springs NW 9/6/26 0500 51.6   3.4 63   6 39.4   0.8 2.8   0.1 NNW | 331 4.3   0.1 NW | 310 0.00 12.0   0.0 66.9   1.5 0.00 51.1   3.1 59.8   6.9 13.4   7.4
Battle Mountain NW 9/6/26 0500 52.1   1.5 48   15 32.8   5.6 0.7   1.8 SW | 228 2.0   1.4 SW | 229 0.00 8.6   0.1 74.2   1.5 0.00 51.7   2.6 61.7   3.0 8.4   1.9
Austin 2 9/6/26 0400 38.0   2.9 55   24 23.1   11.7 2.6   2.0 SW | 216 4.5   1.5 SSW | 213 0.00 2.1   0.1 58.7   0.7 0.00 37.3   1.8 47.0   0.2 7.9   3.1
Elko-Osino 9/6/26 0500 44.0   2.0 54   15 28.3   4.3 2.7   0.8 SE | 138 5.0   1.9 ESE | 105 0.00 1.4   0.0 74.4   0.2 0.00 42.6   1.3 54.4   2.2 9.2   1.6
Elko-Bill Fishpond 2 9/6/26 0500 48.2   3.4 44   26 27.3   8.4 3.8   1.6 SSE | 147 6.3   0.2 SE | 126 0.00 3.5   0.0 66.5   0.1 0.00 46.3   3.3 56.8   7.5 11.7   4.0
Spring Creek SE 2 9/6/26 0500 50.6   4.7 36   31 24.7   11.1 2.4   0.1 E | 84 3.2   1.2 E | 79 0.00 0.2   0.0 67.6   0.3 0.00 49.8   4.7 55.9   2.9 7.0   1.9
Spring Creek NW 9/6/26 0500 51.0   1.1 45   17 30.5   6.9 1.8   1.6 N | 3 4.5   0.2 NW | 326 0.00 2.2   0.0 71.6   0.3 0.00 50.4   1.3 59.1   4.7 6.2   0.2
Elko-Moleen 9/6/26 0500 47.4   5.6 52   20 30.5   2.8 2.0   2.6 WNW | 286 3.7   3.0 WSW | 253 0.00 6.2   0.0 75.8   0.0 0.00 43.2   2.0 60.7   8.0 8.4   1.7
Elko-West 9/6/26 0500 41.4   0.5 60   12 28.6   4.9 2.1   1.5 ENE | 68 3.7   0.7 E | 84 0.00 33.4   0.1 66.6   0.2 0.00 40.4   0.2 53.5   4.2 5.2   0.7
Elko-Adobe Creek 9/6/26 0500 54.3   8.7 43   30 32.4   5.1 5.2   0.4 SE | 136 7.1   0.9 SE | 126 0.00 18.5   0.0 68.2   0.0 0.00 50.9   5.9 57.0   9.7 9.1   0.6
Tuscarora SW 9/6/26 0500 42.1   1.9 66   18 31.7   4.3 1.6   0.6 NE | 38 2.0   1.5 NE | 48 0.00 6.8   0.0 70.2   1.1 0.00 41.6   2.8 49.2   1.9 6.6   0.5
Elko-Monument Peak 9/6/26 0500 33.4   1.6 58   21 20.3   8.8 3.6   1.4 SE | 132 5.5   2.5 SE | 131 0.00 4.2   0.2 68.0   0.0 0.00 33.1   0.2 41.7   3.0 6.7   1.0
Wild Horse 9/6/26 0500 40.6   3.6 73   13 32.6   0.6 3.4   1.3 SSW | 206 4.5   1.0 SW | 216 0.00 4.5   0.0 65.3   1.1 0.00 37.9   2.2 51.4   4.7 6.2   0.6
Max     89.1 100 60.8 13.0 - 21.7 - 0.00 43.6 98.5 0.00 89.1 92.9 32.9
Avg     54.5 51 35.8 3.1 - 6.0 - 0.00 7.0 70.3 - - - -
Min     33.4 26 20.3 0.0 - 0.0 - 0.00 0.2 32.0 0.00 33.1 41.7 4.0